Airfield :
LOGIN :

Register | Disclaimer

   EN    FR    IT 

 










Legend :    VFR   Marginal VFR   IFR   Intensive IFR   Very Intensive IFR
Visi :
Ceiling :
>= 8 km
>= 3000ft
5 to 8 km
1000 to 3000 ft
1500m to 5 km
500 to 1000 ft
800 to 1500m
200 to 500 ft
< 800m
< 200 ft
Symbols :   Thunderstorms  Fog  Heavy snow  Heavy precipitations  Wind > 20 kt
SIGMETs :     Misc.  Thunderstorms  Icing  Turbulence  Mountain Waves  Volcanic Ashes







- Airport Elevation : 183 ft
- IATA code : HAJ


EDDV - Hanover/Langenhagen Int.

CURRENT METAR :
  • 180720Z 09004KT 070V140 8000 SCT010 12/10 Q1016 NOSIG

EXPIRED METARs :
  • 180650Z 07003KT 050V110 4500 BR BKN009 11/10 Q1016 BECMG 6000 BKN010
  • 180620Z 07002KT 3800 BR BKN009 10/10 Q1016 TEMPO 1200
  • 180550Z VRB02KT 2000 BR BKN008 10/09 Q1016 TEMPO 1200 BKN004
  • 180520Z VRB01KT 1800 0700W R27R/P2000N R27L/P2000N BCFG BKN008 10/09 Q1016 TEMPO 0400 BKN004
  • 180450Z VRB02KT 0900 0700W R27R/0900VP2000U R27L/P2000N FG BKN008 08/08 Q1016 TEMPO 0400 BKN004

TAF AMD TAF EDDV
Valid from the 18 at 06:00 until the 19 at 06:00 UTC


180646Z 1806/1906 VRB03KT 4000 BR BKN008
BECMG 1807/1810 12006KT 8000 SCT025
BECMG 1819/1821 VRB03KT 2000 BR
TEMPO 1821/1906 0300 FG OVC001
No reported NOTAMs for that airfield.



MET'MAP, your aeronautical weather chart ! - Copyright ORBIFLY December 2007 - Disclaimer

ORBIFLY MET'MAP TEAM :

Programming & Development : Alexandra Zaïnal
Concept & Development : Baudouin d'Aumeries
Co-Development & Prog : Marc-Olivier Méhu
Technical & hardware support : Manuel Goepfert

Contact : metmap@orbifly.com




SOURCES & CREDITS :

   NOAA